Terminal Aerodrome Forecast
Issued by NWS Jackson, KY

Home | Current Version | Previous Version | Text Only | Print | Product List | Glossary On
Versions: 1 2 3 4 5 6 7 8 9 10 11 12 13 14 15 16 17 18 19
000
FTUS43 KJKL 261732
TAFLOZ
TAF
KLOZ 261732Z 2618/2718 19010G18KT P6SM SCT045 BKN150
      TEMPO 2622/2702 3SM TSRA BR OVC035CB
     FM270300 20003KT P6SM BKN200
     FM271600 22007KT P6SM SCT040 SCT250=

USA.gov is the U.S. government's official web portal to all federal, state and local government web resources and services.